Time;durP1;ratioP1;P1;durP2;ratioP2;P2;SDS_P1;SDS_P2;PMS_P1;PMS_P2;Temp;Humidity;BMP_temperature;BMP_pressure;BME280_temperature;BME280_humidity;BME280_pressure;Samples;Min_cycle;Max_cycle;Signal;HPM_P1;HPM_P2
2023/08/17 00:01:39;;;;;;;7.90;2.22;;;17.40;99.90;;;;;;5047095;28;20025;-50
2023/08/17 00:04:05;;;;;;;6.18;2.17;;;17.40;99.90;;;;;;5046540;28;20505;-50
2023/08/17 00:06:30;;;;;;;4.45;2.50;;;17.40;99.90;;;;;;5046931;28;20599;-53
2023/08/17 00:08:56;;;;;;;6.53;2.08;;;17.40;99.90;;;;;;5046878;28;20029;-51
2023/08/17 00:11:22;;;;;;;3.60;1.95;;;17.30;99.90;;;;;;5048070;28;20029;-50
2023/08/17 00:13:47;;;;;;;5.35;2.25;;;17.30;99.90;;;;;;5046531;28;21297;-53
2023/08/17 00:16:13;;;;;;;3.33;1.25;;;17.30;99.90;;;;;;5050767;28;20075;-53
2023/08/17 00:18:38;;;;;;;7.10;1.80;;;17.30;99.90;;;;;;5050164;28;20532;-52
2023/08/17 00:21:04;;;;;;;4.30;1.67;;;17.30;99.90;;;;;;5051224;28;20041;-50
2023/08/17 00:23:30;;;;;;;4.00;1.20;;;17.30;99.90;;;;;;5050605;28;20083;-50
2023/08/17 00:25:55;;;;;;;4.30;1.33;;;17.20;99.90;;;;;;5050846;28;20025;-52
2023/08/17 00:28:21;;;;;;;7.78;1.65;;;17.20;99.90;;;;;;5049385;28;20033;-50
2023/08/17 00:30:46;;;;;;;7.80;1.73;;;17.20;99.90;;;;;;5049700;28;20048;-54
2023/08/17 00:33:12;;;;;;;3.80;1.40;;;17.20;99.90;;;;;;5049729;28;20075;-52
2023/08/17 00:35:38;;;;;;;4.65;1.70;;;17.10;99.90;;;;;;5048921;28;20037;-50
2023/08/17 00:38:03;;;;;;;6.85;1.55;;;17.10;99.90;;;;;;5049043;28;20047;-50
2023/08/17 00:40:29;;;;;;;7.97;1.92;;;17.10;99.90;;;;;;5050272;28;20036;-53
2023/08/17 00:42:54;;;;;;;4.90;1.38;;;17.10;99.90;;;;;;5050216;28;20128;-50
2023/08/17 00:45:22;;;;;;;5.40;1.92;;;17.10;99.90;;;;;;5051501;28;20096;-55
2023/08/17 00:47:48;;;;;;;8.52;1.77;;;17.10;99.90;;;;;;5048763;28;20033;-50
2023/08/17 00:50:15;;;;;;;7.53;2.42;;;17.10;99.90;;;;;;5051482;28;20090;-51
2023/08/17 00:52:42;;;;;;;8.23;1.50;;;17.10;99.90;;;;;;5051401;28;20045;-52
2023/08/17 00:55:09;;;;;;;5.35;1.05;;;17.10;99.90;;;;;;5051517;28;20410;-50
2023/08/17 00:57:35;;;;;;;4.50;1.95;;;17.10;99.90;;;;;;5051504;28;20462;-50
2023/08/17 01:00:01;;;;;;;;;;;17.10;99.90;;;;;;5051265;28;20509;-53
2023/08/17 01:02:27;;;;;;;3.08;1.52;;;17.10;99.90;;;;;;5050975;28;20148;-55
2023/08/17 01:04:53;;;;;;;7.43;1.55;;;17.10;99.90;;;;;;5051718;28;20126;-57
2023/08/17 01:07:18;;;;;;;11.35;1.77;;;17.10;99.90;;;;;;5051602;28;20580;-50
2023/08/17 01:09:44;;;;;;;9.00;2.10;;;17.10;99.90;;;;;;5050740;28;20133;-50
2023/08/17 01:12:35;;;;;;;2.72;1.30;;;17.00;99.90;;;;;;5051630;28;20402;-53
2023/08/17 01:15:17;;;;;;;5.47;1.63;;;17.10;99.90;;;;;;5048150;28;20498;-50
2023/08/17 01:17:52;;;;;;;6.32;1.55;;;17.00;99.90;;;;;;5049729;28;20045;-50
2023/08/17 01:20:19;;;;;;;4.40;1.42;;;17.10;99.90;;;;;;5049083;28;20051;-50
2023/08/17 01:22:48;;;;;;;5.90;1.38;;;17.10;99.90;;;;;;5049273;28;20033;-52
2023/08/17 01:25:13;;;;;;;6.22;1.65;;;17.10;99.90;;;;;;5050648;28;20048;-52
2023/08/17 01:27:46;;;;;;;5.30;1.70;;;17.10;99.90;;;;;;5050085;28;20327;-54
2023/08/17 01:30:14;;;;;;;4.65;1.67;;;17.10;99.90;;;;;;5050085;28;20036;-51
2023/08/17 01:33:03;;;;;;;6.03;1.42;;;17.10;99.90;;;;;;5050445;28;20406;-53
2023/08/17 01:35:47;;;;;;;5.70;2.17;;;17.10;99.90;;;;;;5050044;28;20047;-49
2023/08/17 01:38:17;;;;;;;7.70;1.85;;;17.00;99.90;;;;;;5050274;28;20049;-50
2023/08/17 01:40:44;;;;;;;3.88;1.98;;;17.00;99.90;;;;;;5050685;28;20080;-50
2023/08/17 01:43:11;;;;;;;5.00;1.25;;;17.00;99.90;;;;;;5049676;28;20040;-55
2023/08/17 01:45:37;;;;;;;4.50;1.05;;;17.00;99.90;;;;;;5050351;28;20409;-50
2023/08/17 01:48:02;;;;;;;4.32;1.52;;;16.90;99.90;;;;;;5049578;28;20025;-51
2023/08/17 01:50:28;;;;;;;4.22;1.45;;;16.90;99.90;;;;;;5048923;28;20072;-55
2023/08/17 01:52:53;;;;;;;4.22;1.42;;;16.90;99.90;;;;;;5048092;28;20556;-53
2023/08/17 01:55:23;;;;;;;3.72;1.40;;;16.90;99.90;;;;;;5050481;28;20371;-50
2023/08/17 01:57:48;;;;;;;6.47;1.25;;;16.90;99.90;;;;;;5050519;28;20037;-53
2023/08/17 02:00:14;;;;;;;4.63;1.00;;;16.90;99.90;;;;;;5050041;28;20087;-50
2023/08/17 02:02:40;;;;;;;;;;;16.90;99.90;;;;;;5051026;28;20033;-53
2023/08/17 02:05:06;;;;;;;7.40;1.33;;;16.90;99.90;;;;;;5049587;28;19979;-50
2023/08/17 02:07:32;;;;;;;6.47;1.63;;;16.90;99.90;;;;;;5050325;28;20068;-50
2023/08/17 02:09:58;;;;;;;8.45;2.05;;;16.80;99.90;;;;;;5049658;28;20068;-50
2023/08/17 02:12:24;;;;;;;8.32;2.00;;;16.80;99.90;;;;;;5050294;28;20043;-50
2023/08/17 02:14:50;;;;;;;4.28;1.52;;;16.80;99.90;;;;;;5043919;28;20037;-50
2023/08/17 02:17:19;;;;;;;5.68;1.45;;;16.80;99.90;;;;;;5048868;28;20040;-51
2023/08/17 02:19:45;;;;;;;6.63;1.63;;;16.90;99.90;;;;;;5048094;28;20051;-50
2023/08/17 02:22:10;;;;;;;5.97;1.30;;;16.80;99.90;;;;;;5047974;28;20037;-50
2023/08/17 02:24:36;;;;;;;5.50;1.25;;;16.80;99.90;;;;;;5048960;28;20036;-50
2023/08/17 02:27:02;;;;;;;3.22;1.30;;;16.80;99.90;;;;;;5048495;28;20502;-54
2023/08/17 02:29:27;;;;;;;4.03;1.23;;;16.80;99.90;;;;;;5047773;28;20084;-50
2023/08/17 02:31:53;;;;;;;5.15;1.20;;;16.80;99.90;;;;;;5048493;28;20064;-55
2023/08/17 02:34:19;;;;;;;5.38;1.17;;;16.70;99.90;;;;;;5048299;28;20037;-55
2023/08/17 02:36:44;;;;;;;4.22;1.25;;;16.70;99.90;;;;;;5048971;28;20040;-54
2023/08/17 02:39:10;;;;;;;7.82;1.45;;;16.70;99.90;;;;;;5046607;28;20060;-50
2023/08/17 02:41:36;;;;;;;5.68;1.42;;;16.70;99.90;;;;;;5049046;28;20112;-50
2023/08/17 02:44:02;;;;;;;3.95;1.20;;;16.70;99.90;;;;;;5047896;28;20402;-50
2023/08/17 02:46:28;;;;;;;4.38;1.15;;;16.70;99.90;;;;;;5048666;28;20052;-50
2023/08/17 02:48:53;;;;;;;5.20;1.10;;;16.60;99.90;;;;;;5046662;28;20037;-52
2023/08/17 02:51:19;;;;;;;2.65;1.40;;;16.60;99.90;;;;;;5048895;28;20033;-54
2023/08/17 02:53:44;;;;;;;3.95;1.60;;;16.60;99.90;;;;;;5047680;28;20120;-50
2023/08/17 02:56:12;;;;;;;9.77;1.23;;;16.60;99.90;;;;;;5047319;28;20028;-52
2023/08/17 02:58:41;;;;;;;4.97;1.33;;;16.60;99.90;;;;;;5029175;28;20041;-53
2023/08/17 03:01:10;;;;;;;7.50;1.35;;;16.60;99.90;;;;;;5047718;28;20090;-50
2023/08/17 03:03:36;;;;;;;6.43;0.95;;;16.60;99.90;;;;;;5047194;28;20411;-53
2023/08/17 03:06:02;;;;;;;6.18;1.23;;;16.60;99.90;;;;;;5048029;28;20043;-55
2023/08/17 03:08:28;;;;;;;4.05;1.05;;;16.60;99.90;;;;;;5047576;28;20029;-53
2023/08/17 03:10:54;;;;;;;5.00;1.20;;;16.50;99.90;;;;;;5046582;28;20459;-55
2023/08/17 03:13:19;;;;;;;9.00;1.35;;;16.50;99.90;;;;;;5048052;28;20044;-53
2023/08/17 03:15:45;;;;;;;4.25;1.20;;;16.50;99.90;;;;;;5030057;28;20410;-52
2023/08/17 03:18:10;;;;;;;4.47;1.38;;;16.60;99.90;;;;;;5048143;28;20101;-52
2023/08/17 03:20:36;;;;;;;3.63;1.52;;;16.50;99.90;;;;;;5048006;28;20036;-50
2023/08/17 03:23:05;;;;;;;5.07;1.17;;;16.60;99.90;;;;;;5047238;28;20033;-54
2023/08/17 03:25:31;;;;;;;6.22;1.50;;;16.60;99.90;;;;;;5047874;28;20466;-51
2023/08/17 03:27:57;;;;;;;5.20;0.73;;;16.60;99.90;;;;;;5047084;28;20110;-54
2023/08/17 03:30:22;;;;;;;4.97;1.10;;;16.60;99.90;;;;;;5046880;28;20041;-49
2023/08/17 03:32:48;;;;;;;5.93;1.13;;;16.60;99.90;;;;;;5048087;28;20036;-51
2023/08/17 03:35:14;;;;;;;4.15;1.25;;;16.60;99.90;;;;;;5046754;28;20051;-52
2023/08/17 03:37:39;;;;;;;3.97;1.00;;;16.60;99.90;;;;;;5047726;28;20037;-53
2023/08/17 03:40:05;;;;;;;2.42;1.20;;;16.60;99.90;;;;;;5047347;28;20514;-51
2023/08/17 03:42:31;;;;;;;3.05;1.10;;;16.60;99.90;;;;;;5047777;28;20382;-50
2023/08/17 03:44:57;;;;;;;3.08;1.23;;;16.60;99.90;;;;;;5046846;28;20032;-50
2023/08/17 03:47:22;;;;;;;3.28;1.08;;;16.60;99.90;;;;;;5047750;28;20048;-50
2023/08/17 03:49:48;;;;;;;5.70;1.58;;;16.60;99.90;;;;;;5046002;28;20539;-56
2023/08/17 03:52:14;;;;;;;4.15;1.40;;;16.60;99.90;;;;;;5047524;28;20043;-50
2023/08/17 03:54:39;;;;;;;5.13;1.80;;;16.60;99.90;;;;;;5047382;28;20481;-51
2023/08/17 03:57:05;;;;;;;3.97;1.40;;;16.50;99.90;;;;;;5047142;28;20040;-51
2023/08/17 03:59:30;;;;;;;3.72;0.98;;;16.50;99.90;;;;;;5044257;28;20050;-54
2023/08/17 04:01:56;;;;;;;3.15;1.13;;;16.50;99.90;;;;;;5045829;28;20557;-51
2023/08/17 04:04:21;;;;;;;8.63;1.88;;;16.50;99.90;;;;;;5045538;28;20043;-50
2023/08/17 04:06:47;;;;;;;3.67;1.13;;;16.50;99.90;;;;;;5047449;28;20073;-50
2023/08/17 04:09:13;;;;;;;5.07;1.20;;;16.50;99.90;;;;;;5046116;28;20151;-54
2023/08/17 04:11:38;;;;;;;5.22;1.83;;;16.50;99.90;;;;;;5047482;28;20102;-50
2023/08/17 04:14:04;;;;;;;7.13;1.75;;;16.50;99.90;;;;;;5046175;28;20390;-53
2023/08/17 04:16:30;;;;;;;8.57;2.08;;;16.50;99.90;;;;;;5046922;28;20126;-52
2023/08/17 04:18:55;;;;;;;8.25;2.00;;;16.50;99.90;;;;;;5046201;28;20065;-52
2023/08/17 04:21:21;;;;;;;3.95;1.73;;;16.50;99.90;;;;;;5046911;28;20398;-50
2023/08/17 04:23:47;;;;;;;7.00;2.50;;;16.50;99.90;;;;;;5047033;28;20219;-50
2023/08/17 04:26:13;;;;;;;4.32;2.10;;;16.50;99.90;;;;;;5046324;28;20065;-54
2023/08/17 04:28:38;;;;;;;4.50;1.73;;;16.50;99.90;;;;;;5029258;28;20542;-52
2023/08/17 04:31:04;;;;;;;4.93;2.05;;;16.50;99.90;;;;;;5046420;28;20048;-53
2023/08/17 04:33:29;;;;;;;6.18;2.10;;;16.50;99.90;;;;;;5046984;28;20065;-50
2023/08/17 04:35:55;;;;;;;5.30;1.88;;;16.50;99.90;;;;;;5046824;28;21451;-52
2023/08/17 04:38:21;;;;;;;7.47;1.45;;;16.50;99.90;;;;;;5045958;28;20041;-55
2023/08/17 04:40:47;;;;;;;4.65;2.00;;;16.60;99.90;;;;;;5046919;28;20033;-55
2023/08/17 04:43:13;;;;;;;7.85;2.00;;;16.60;99.90;;;;;;5045937;28;20059;-53
2023/08/17 04:45:38;;;;;;;5.63;2.28;;;16.50;99.90;;;;;;5047097;28;20036;-49
2023/08/17 04:48:05;;;;;;;7.95;1.92;;;16.60;99.90;;;;;;5046283;28;20043;-50
2023/08/17 04:50:31;;;;;;;5.78;2.30;;;16.60;99.90;;;;;;5046955;28;20047;-53
2023/08/17 04:52:57;;;;;;;3.72;2.10;;;16.60;99.90;;;;;;5046647;28;20207;-50
2023/08/17 04:55:23;;;;;;;3.90;1.95;;;16.60;99.90;;;;;;5046966;28;20063;-53
2023/08/17 04:57:48;;;;;;;7.97;1.67;;;16.60;99.90;;;;;;5046396;28;20394;-50
2023/08/17 05:00:16;;;;;;;7.72;2.25;;;16.60;99.90;;;;;;5045816;28;20040;-54
2023/08/17 05:02:42;;;;;;;4.38;1.95;;;16.60;99.90;;;;;;5050194;28;20122;-55
2023/08/17 05:05:10;;;;;;;6.28;2.28;;;16.60;99.90;;;;;;5049858;28;20041;-54
2023/08/17 05:07:35;;;;;;;6.03;1.60;;;16.60;99.90;;;;;;5030812;28;20037;-53
2023/08/17 05:10:02;;;;;;;5.28;1.88;;;16.60;99.90;;;;;;5047823;28;20086;-50
2023/08/17 05:12:27;;;;;;;5.15;1.50;;;16.60;99.90;;;;;;5049709;28;20032;-53
2023/08/17 05:14:53;;;;;;;10.98;2.00;;;16.60;99.90;;;;;;5049803;28;20120;-55
2023/08/17 05:17:19;;;;;;;6.13;2.03;;;16.60;99.90;;;;;;5050073;28;20379;-50
2023/08/17 05:19:45;;;;;;;5.72;1.67;;;16.60;99.90;;;;;;5049514;28;20568;-55
2023/08/17 05:22:12;;;;;;;5.47;1.92;;;16.60;99.90;;;;;;5049975;28;20047;-50
2023/08/17 05:24:38;;;;;;;9.57;2.50;;;16.70;99.90;;;;;;5049764;28;20104;-53
2023/08/17 05:27:04;;;;;;;6.40;1.85;;;16.60;99.90;;;;;;5048921;28;20069;-53
2023/08/17 05:29:32;;;;;;;6.15;1.63;;;16.70;99.90;;;;;;5049061;28;20541;-52
2023/08/17 05:31:57;;;;;;;6.18;1.75;;;16.70;99.90;;;;;;5031682;28;20053;-55
2023/08/17 05:34:23;;;;;;;4.57;1.73;;;16.70;99.90;;;;;;5049714;28;20043;-50
2023/08/17 05:36:49;;;;;;;4.93;1.38;;;16.80;99.90;;;;;;5050501;28;20033;-52
2023/08/17 05:39:14;;;;;;;8.73;1.70;;;16.80;99.90;;;;;;5048910;28;20584;-50
2023/08/17 05:41:40;;;;;;;5.40;2.20;;;16.80;99.90;;;;;;5049201;28;20032;-53
2023/08/17 05:44:06;;;;;;;5.10;2.15;;;16.80;99.90;;;;;;5049304;28;20378;-50
2023/08/17 05:46:33;;;;;;;9.77;1.83;;;16.80;99.90;;;;;;5049699;28;20029;-54
2023/08/17 05:48:59;;;;;;;9.57;2.03;;;16.80;99.90;;;;;;5046869;28;20033;-52
2023/08/17 05:51:25;;;;;;;7.72;1.80;;;16.80;99.90;;;;;;5049748;28;20113;-54
2023/08/17 05:53:50;;;;;;;;;;;16.80;99.90;;;;;;5029834;28;20447;-55
2023/08/17 05:56:16;;;;;;;7.05;1.90;;;16.80;99.90;;;;;;5048550;28;20003;-50
2023/08/17 05:58:41;;;;;;;5.43;1.35;;;16.90;99.90;;;;;;5048601;28;20040;-50
2023/08/17 06:01:08;;;;;;;6.05;1.67;;;16.80;99.90;;;;;;5048823;28;20124;-53
2023/08/17 06:03:35;;;;;;;3.30;1.20;;;16.80;99.90;;;;;;5048338;28;20045;-51
2023/08/17 06:06:01;;;;;;;7.68;2.00;;;16.80;99.90;;;;;;5046874;28;20037;-51
2023/08/17 06:08:26;;;;;;;6.70;1.67;;;16.80;99.90;;;;;;5046733;28;20029;-50
2023/08/17 06:10:52;;;;;;;3.28;1.38;;;16.90;99.90;;;;;;5045935;28;20094;-50
2023/08/17 06:13:17;;;;;;;7.70;1.20;;;16.90;99.90;;;;;;5044669;28;20044;-53
2023/08/17 06:15:43;;;;;;;2.70;1.10;;;16.90;99.90;;;;;;5048608;28;20051;-50
2023/08/17 06:18:08;;;;;;;5.53;1.27;;;16.90;99.90;;;;;;5047930;28;20040;-53
2023/08/17 06:20:34;;;;;;;6.05;1.30;;;16.90;99.90;;;;;;5049600;28;20049;-50
2023/08/17 06:23:00;;;;;;;6.15;1.40;;;16.90;99.90;;;;;;5047861;28;20119;-53
2023/08/17 06:25:25;;;;;;;4.90;1.30;;;17.00;99.90;;;;;;5048053;28;20497;-50
2023/08/17 06:27:51;;;;;;;5.25;1.50;;;17.00;99.90;;;;;;5046986;28;20039;-51
2023/08/17 06:30:17;;;;;;;2.15;1.05;;;17.10;99.90;;;;;;5047998;28;20048;-55
2023/08/17 06:32:43;;;;;;;7.32;1.20;;;17.10;99.90;;;;;;5048862;28;20049;-54
2023/08/17 06:35:09;;;;;;;7.05;0.95;;;17.10;99.90;;;;;;5041777;28;20422;-53
2023/08/17 06:37:34;;;;;;;3.83;0.70;;;17.10;99.90;;;;;;5046912;28;20742;-50
2023/08/17 06:40:00;;;;;;;7.22;1.00;;;17.20;99.90;;;;;;5047164;28;20073;-50
2023/08/17 06:42:26;;;;;;;4.53;1.23;;;17.20;99.90;;;;;;5046636;28;20033;-51
2023/08/17 06:44:51;;;;;;;4.75;1.25;;;17.20;99.90;;;;;;5048407;28;20037;-50
2023/08/17 06:47:17;;;;;;;4.80;0.90;;;17.20;99.90;;;;;;5047601;28;20123;-55
2023/08/17 06:49:42;;;;;;;4.85;1.35;;;17.30;99.90;;;;;;5046267;28;20435;-50
2023/08/17 06:52:08;;;;;;;4.22;0.88;;;17.30;99.90;;;;;;5046418;28;20036;-50
2023/08/17 06:54:34;;;;;;;4.68;0.77;;;17.30;99.90;;;;;;5045315;28;20497;-52
2023/08/17 06:56:59;;;;;;;3.85;1.02;;;17.30;99.90;;;;;;5047703;28;20056;-53
2023/08/17 06:59:25;;;;;;;5.22;0.90;;;17.40;99.90;;;;;;5047009;28;20049;-53
2023/08/17 07:01:50;;;;;;;4.22;0.80;;;17.40;99.90;;;;;;5047775;28;20375;-50
2023/08/17 07:04:16;;;;;;;7.70;1.17;;;17.30;99.90;;;;;;5045788;28;20037;-53
2023/08/17 07:06:43;;;;;;;4.88;0.90;;;17.40;99.90;;;;;;5044820;28;20047;-51
2023/08/17 07:09:11;;;;;;;5.03;0.90;;;17.40;99.90;;;;;;5046186;28;20063;-51
2023/08/17 07:11:37;;;;;;;10.68;1.40;;;17.40;99.90;;;;;;5047762;28;20037;-53
2023/08/17 07:14:03;;;;;;;4.65;0.77;;;17.50;99.90;;;;;;5042775;28;20447;-50
2023/08/17 07:16:29;;;;;;;6.43;0.75;;;17.50;99.90;;;;;;5044348;28;20057;-58
2023/08/17 07:18:54;;;;;;;89.32;6.10;;;17.50;99.90;;;;;;5041301;28;20037;-50
2023/08/17 07:21:20;;;;;;;4.80;0.63;;;17.50;99.90;;;;;;5039532;28;20449;-52
2023/08/17 07:23:46;;;;;;;5.47;0.55;;;17.50;99.90;;;;;;5039767;28;20060;-50
2023/08/17 07:26:12;;;;;;;6.05;1.15;;;17.60;99.90;;;;;;5041015;28;20044;-52
2023/08/17 07:28:38;;;;;;;8.43;1.55;;;17.60;99.90;;;;;;5033122;28;20032;-54
2023/08/17 07:31:05;;;;;;;5.65;1.08;;;17.60;99.90;;;;;;5043827;28;20052;-53
2023/08/17 07:33:31;;;;;;;13.18;1.10;;;17.60;99.90;;;;;;5046228;28;20044;-51
2023/08/17 07:35:58;;;;;;;4.13;0.80;;;17.60;99.90;;;;;;5046059;28;20099;-52
2023/08/17 07:38:24;;;;;;;3.97;0.82;;;17.70;99.90;;;;;;5040976;28;20056;-51
2023/08/17 07:40:49;;;;;;;3.30;0.70;;;17.70;99.90;;;;;;5040224;28;20436;-52
2023/08/17 07:43:15;;;;;;;3.60;0.45;;;17.70;99.90;;;;;;5045464;28;20036;-55
2023/08/17 07:45:40;;;;;;;4.70;0.70;;;17.70;99.90;;;;;;5042988;28;20032;-52
2023/08/17 07:48:06;;;;;;;6.75;1.35;;;17.70;99.90;;;;;;5038393;28;20033;-58
2023/08/17 07:50:32;;;;;;;6.00;0.98;;;17.70;99.90;;;;;;5046988;28;20028;-52
2023/08/17 07:52:57;;;;;;;1.75;0.40;;;17.70;99.90;;;;;;5039749;28;20497;-60
2023/08/17 07:55:23;;;;;;;2.95;0.50;;;17.70;99.90;;;;;;5036201;28;20037;-53
2023/08/17 07:57:48;;;;;;;4.03;1.00;;;17.70;99.90;;;;;;5046796;28;20044;-52
2023/08/17 08:00:15;;;;;;;7.22;1.52;;;17.70;99.90;;;;;;5040152;28;20045;-56
2023/08/17 08:02:40;;;;;;;;;;;17.80;99.90;;;;;;5049241;28;20051;-55
2023/08/17 08:05:06;;;;;;;7.82;0.70;;;17.80;99.90;;;;;;5049043;28;19917;-53
2023/08/17 08:07:32;;;;;;;11.48;1.73;;;17.80;99.90;;;;;;5048800;28;20083;-54
2023/08/17 08:09:57;;;;;;;4.32;0.88;;;17.90;99.90;;;;;;5045067;28;20072;-54
2023/08/17 08:12:23;;;;;;;3.38;0.60;;;17.80;99.90;;;;;;5042434;28;20087;-52
2023/08/17 08:14:50;;;;;;;2.03;0.75;;;17.80;99.90;;;;;;5049396;28;20411;-51
2023/08/17 08:17:16;;;;;;;10.38;1.08;;;17.80;99.90;;;;;;5042684;28;20052;-52
2023/08/17 08:19:42;;;;;;;2.50;0.60;;;17.90;99.90;;;;;;5044421;28;20044;-52
2023/08/17 08:22:07;;;;;;;3.22;0.80;;;17.90;99.90;;;;;;5045248;28;20051;-51
2023/08/17 08:24:34;;;;;;;7.90;0.80;;;18.00;99.90;;;;;;5047056;28;20044;-54
2023/08/17 08:27:01;;;;;;;4.30;0.65;;;18.00;99.90;;;;;;5019981;28;20044;-50
2023/08/17 08:29:27;;;;;;;2.80;0.73;;;18.10;99.90;;;;;;5039301;28;20077;-51
2023/08/17 08:31:53;;;;;;;3.58;0.70;;;18.10;99.90;;;;;;5046236;28;20057;-50
2023/08/17 08:34:18;;;;;;;;;;;18.10;99.90;;;;;;5041702;28;20102;-53
2023/08/17 08:36:44;;;;;;;3.63;0.77;;;18.20;99.90;;;;;;5040741;28;19916;-49
2023/08/17 08:39:12;;;;;;;4.03;0.93;;;18.20;99.90;;;;;;5039984;28;20095;-50
2023/08/17 08:41:38;;;;;;;5.45;0.75;;;18.20;99.90;;;;;;5050887;28;20041;-52
2023/08/17 08:44:04;;;;;;;7.40;0.77;;;18.20;99.90;;;;;;5052360;28;20037;-53
2023/08/17 08:46:32;;;;;;;2.70;0.55;;;18.20;99.90;;;;;;5053365;28;20386;-50
2023/08/17 08:48:58;;;;;;;5.05;0.80;;;18.20;99.90;;;;;;5052103;28;20041;-53
2023/08/17 08:51:30;;;;;;;2.40;0.68;;;18.30;99.90;;;;;;5052597;28;20176;-53
2023/08/17 08:54:03;;;;;;;2.97;1.15;;;18.30;99.90;;;;;;5052813;28;20049;-51
2023/08/17 08:56:32;;;;;;;2.20;0.80;;;18.30;99.90;;;;;;5034855;28;20124;-50
2023/08/17 08:59:01;;;;;;;3.67;0.80;;;18.30;99.90;;;;;;5044155;28;20051;-50
2023/08/17 09:01:28;;;;;;;2.88;0.52;;;18.40;99.90;;;;;;5052637;28;20052;-50
2023/08/17 09:03:55;;;;;;;2.30;0.90;;;18.50;99.90;;;;;;5052243;28;20390;-49
2023/08/17 09:06:23;;;;;;;4.15;0.85;;;18.50;99.90;;;;;;5066099;28;20421;-50
2023/08/17 09:08:49;;;;;;;4.95;0.80;;;18.50;99.90;;;;;;5072012;28;20040;-50
2023/08/17 09:11:14;;;;;;;;;;;18.50;99.90;;;;;;5073085;28;20566;-50
2023/08/17 09:13:40;;;;;;;2.63;0.90;;;18.50;99.90;;;;;;5072596;28;19920;-51
2023/08/17 09:16:05;;;;;;;5.00;0.70;;;18.50;99.90;;;;;;5054804;28;20075;-53
2023/08/17 09:18:31;;;;;;;1.83;1.05;;;18.50;99.90;;;;;;5061621;28;20113;-52
2023/08/17 09:20:57;;;;;;;3.95;1.05;;;18.50;99.90;;;;;;5052607;28;20037;-50
2023/08/17 09:23:22;;;;;;;1.98;0.73;;;18.50;99.90;;;;;;5046895;28;20037;-50
2023/08/17 09:25:51;;;;;;;1.08;0.52;;;18.50;99.90;;;;;;5044087;28;20037;-52
2023/08/17 09:28:18;;;;;;;4.13;0.95;;;18.50;99.90;;;;;;5042611;28;20059;-50
2023/08/17 09:31:03;;;;;;;4.00;1.00;;;18.50;99.90;;;;;;5040665;28;20080;-55
2023/08/17 09:33:30;;;;;;;4.68;1.20;;;18.50;99.90;;;;;;5047046;28;20628;-50
2023/08/17 09:35:57;;;;;;;4.53;1.08;;;18.50;99.90;;;;;;5042567;28;20041;-54
2023/08/17 09:38:23;;;;;;;5.15;0.95;;;18.50;99.90;;;;;;5048084;28;20131;-50
2023/08/17 09:40:49;;;;;;;;;;;18.50;99.90;;;;;;5043643;28;20172;-49
2023/08/17 09:43:16;;;;;;;2.85;0.80;;;18.50;99.90;;;;;;5051520;28;20007;-51
2023/08/17 09:45:47;;;;;;;4.30;0.80;;;18.50;99.90;;;;;;5052040;28;20048;-51
2023/08/17 09:48:17;;;;;;;3.50;0.75;;;18.50;99.90;;;;;;5051142;28;20397;-50
2023/08/17 09:50:44;;;;;;;1.83;0.80;;;18.50;99.90;;;;;;5052116;28;20049;-50
2023/08/17 09:53:14;;;;;;;3.80;0.75;;;18.60;99.90;;;;;;5050421;28;20163;-53
2023/08/17 09:55:42;;;;;;;4.60;1.05;;;18.60;99.90;;;;;;5048282;28;20051;-53
2023/08/17 09:58:08;;;;;;;2.95;0.77;;;18.60;99.90;;;;;;5045763;28;20072;-52
2023/08/17 10:00:34;;;;;;;2.88;0.93;;;18.70;99.90;;;;;;5040257;28;20410;-49
2023/08/17 10:03:01;;;;;;;;;;;18.80;99.90;;;;;;5044653;28;20033;-50
2023/08/17 10:05:28;;;;;;;;;;;18.90;99.90;;;;;;5046124;28;21541;-50
2023/08/17 10:07:57;;;;;;;3.35;1.10;;;18.90;99.90;;;;;;5050844;28;19924;-53
2023/08/17 10:10:28;;;;;;;4.85;1.13;;;19.00;99.90;;;;;;5050671;28;20036;-50
2023/08/17 10:13:11;;;;;;;2.55;1.25;;;19.10;99.90;;;;;;5046933;28;20331;-51
2023/08/17 10:16:00;;;;;;;5.78;1.63;;;19.10;99.90;;;;;;5047216;28;20033;-51
2023/08/17 10:18:35;;;;;;;4.32;1.55;;;19.10;99.90;;;;;;5014550;28;20180;-50
2023/08/17 10:21:05;;;;;;;2.50;1.57;;;19.20;99.90;;;;;;5047696;28;20037;-51
2023/08/17 10:23:31;;;;;;;3.38;1.25;;;19.20;99.90;;;;;;5046045;28;20398;-58
2023/08/17 10:25:57;;;;;;;6.40;1.35;;;19.20;99.90;;;;;;5045257;28;20037;-53
2023/08/17 10:28:24;;;;;;;4.30;1.52;;;19.20;99.90;;;;;;5048676;28;20032;-52
2023/08/17 10:30:51;;;;;;;2.58;1.20;;;19.20;99.90;;;;;;5049083;28;20101;-51
2023/08/17 10:33:17;;;;;;;5.30;1.33;;;19.20;99.90;;;;;;5045768;28;20037;-50
2023/08/17 10:35:44;;;;;;;3.13;1.13;;;19.20;99.90;;;;;;5049847;28;20044;-50
2023/08/17 10:38:10;;;;;;;2.63;1.65;;;19.30;99.90;;;;;;5046636;28;20033;-52
2023/08/17 10:40:38;;;;;;;3.13;1.50;;;19.40;99.90;;;;;;5049821;28;20041;-53
2023/08/17 10:43:04;;;;;;;4.90;1.30;;;19.40;99.90;;;;;;5050389;28;20072;-50
2023/08/17 10:45:33;;;;;;;2.58;1.60;;;19.50;99.90;;;;;;5048737;28;20471;-51
2023/08/17 10:48:08;;;;;;;7.00;2.15;;;19.50;99.90;;;;;;5054758;28;20044;-50
2023/08/17 10:50:35;;;;;;;4.05;1.55;;;19.60;99.90;;;;;;5044219;28;20099;-50
2023/08/17 10:53:11;;;;;;;5.05;1.40;;;19.60;99.90;;;;;;5030473;28;20069;-50
2023/08/17 10:55:37;;;;;;;4.40;1.53;;;19.70;99.90;;;;;;5036005;28;20045;-52
2023/08/17 10:58:04;;;;;;;5.65;1.30;;;19.70;99.90;;;;;;5039276;28;20276;-52
2023/08/17 11:00:38;;;;;;;24.42;2.83;;;19.70;99.90;;;;;;5044074;28;20064;-50
2023/08/17 11:03:05;;;;;;;5.43;1.77;;;19.70;99.90;;;;;;5045043;28;20459;-50
2023/08/17 11:05:41;;;;;;;6.32;2.05;;;19.80;99.90;;;;;;5050434;28;20029;-50
2023/08/17 11:08:13;;;;;;;27.02;3.17;;;19.80;99.90;;;;;;5042627;28;20052;-53
2023/08/17 11:10:40;;;;;;;3.67;2.42;;;19.80;99.90;;;;;;5049142;28;20638;-53
2023/08/17 11:13:06;;;;;;;;;;;19.80;99.90;;;;;;5049817;28;20040;-52
2023/08/17 11:15:42;;;;;;;3.08;1.42;;;19.80;99.90;;;;;;5047953;28;19917;-54
2023/08/17 11:18:09;;;;;;;8.32;1.48;;;19.90;99.90;;;;;;5049518;28;20045;-55
2023/08/17 11:20:36;;;;;;;3.78;1.98;;;19.90;99.90;;;;;;5047321;28;20028;-51
2023/08/17 11:23:02;;;;;;;4.63;2.38;;;19.90;99.90;;;;;;5046370;28;20550;-49
2023/08/17 11:25:28;;;;;;;10.82;2.47;;;19.80;99.90;;;;;;5051912;28;20437;-49
2023/08/17 11:27:56;;;;;;;;;;;19.80;99.90;;;;;;5044356;28;20498;-54
2023/08/17 11:30:22;;;;;;;4.55;1.73;;;19.80;99.90;;;;;;5047724;28;20449;-53
2023/08/17 11:32:50;;;;;;;3.90;1.77;;;19.70;99.90;;;;;;5025499;28;20117;-54
2023/08/17 11:35:16;;;;;;;6.22;2.03;;;19.70;99.90;;;;;;5043920;28;20771;-49
2023/08/17 11:37:43;;;;;;;7.80;2.08;;;19.70;99.90;;;;;;5027723;28;20043;-52
2023/08/17 11:40:15;;;;;;;6.57;1.73;;;19.70;99.90;;;;;;5035046;28;20048;-53
2023/08/17 11:42:42;;;;;;;7.47;1.88;;;19.70;99.90;;;;;;5040755;28;20039;-49
2023/08/17 11:45:11;;;;;;;6.78;2.30;;;19.70;99.90;;;;;;5029493;28;20579;-53
2023/08/17 11:47:43;;;;;;;3.88;1.77;;;19.70;99.90;;;;;;5060945;28;20093;-50
2023/08/17 11:50:12;;;;;;;7.55;1.58;;;19.70;99.90;;;;;;5059051;28;20048;-51
2023/08/17 11:52:38;;;;;;;9.10;2.35;;;19.80;99.90;;;;;;5061643;28;20101;-52
2023/08/17 11:55:06;;;;;;;8.18;1.80;;;19.80;99.90;;;;;;5056115;28;20131;-52
2023/08/17 11:57:32;;;;;;;6.13;2.25;;;19.90;99.90;;;;;;5048747;28;20112;-55
2023/08/17 11:59:58;;;;;;;;;;;19.90;99.90;;;;;;5043496;28;20041;-52
2023/08/17 12:02:24;;;;;;;3.85;1.98;;;19.90;99.90;;;;;;5027449;28;19923;-49
2023/08/17 12:04:50;;;;;;;;;;;19.90;99.90;;;;;;5045724;28;20285;-52
2023/08/17 12:07:16;;;;;;;11.37;2.57;;;20.00;99.90;;;;;;5027664;28;19917;-52
2023/08/17 12:09:43;;;;;;;4.55;2.08;;;20.10;99.90;;;;;;5038663;28;20037;-54
2023/08/17 12:12:10;;;;;;;6.65;2.17;;;20.20;99.90;;;;;;5037307;28;20039;-49
2023/08/17 12:14:36;;;;;;;5.40;1.95;;;20.10;99.90;;;;;;5047695;28;20037;-49
2023/08/17 12:17:02;;;;;;;5.22;2.20;;;20.10;99.90;;;;;;5012832;28;20463;-49
2023/08/17 12:19:29;;;;;;;6.15;2.67;;;20.10;99.90;;;;;;5040103;28;20029;-53
2023/08/17 12:21:54;;;;;;;6.80;2.10;;;20.20;99.90;;;;;;5050814;28;20156;-50
2023/08/17 12:24:23;;;;;;;13.05;2.08;;;20.20;99.90;;;;;;5050407;28;20442;-50
2023/08/17 12:26:49;;;;;;;8.73;2.30;;;20.20;99.90;;;;;;5066104;28;20067;-52
2023/08/17 12:29:15;;;;;;;6.43;2.40;;;20.20;99.90;;;;;;5068226;28;20094;-53
2023/08/17 12:31:40;;;;;;;;;;;20.30;99.90;;;;;;5042696;28;20033;-55
2023/08/17 12:34:06;;;;;;;23.00;3.72;;;20.40;99.90;;;;;;5048393;28;19920;-50
2023/08/17 12:36:31;;;;;;;;;;;20.50;99.90;;;;;;5048314;28;20120;-56
2023/08/17 12:38:57;;;;;;;5.28;2.47;;;20.60;99.90;;;;;;5044041;28;19927;-50
2023/08/17 12:41:23;;;;;;;;;;;20.90;99.90;;;;;;5039288;28;20065;-51
2023/08/17 12:43:48;;;;;;;5.85;2.92;;;21.00;99.90;;;;;;5039259;28;20565;-56
2023/08/17 12:46:14;;;;;;;;;;;21.10;99.90;;;;;;5042203;28;20091;-55
2023/08/17 12:48:39;;;;;;;4.03;2.10;;;21.20;99.90;;;;;;5044064;28;19928;-50